sensor_id;sensor_type;location;lat;lon;timestamp;P1;durP1;ratioP1;P2;durP2;ratioP2
37309;SDS011;23195;47.744;7.358;2024-01-16T00:02:06;47.63;;;19.23;;
37309;SDS011;23195;47.744;7.358;2024-01-16T00:04:36;54.97;;;19.23;;
37309;SDS011;23195;47.744;7.358;2024-01-16T00:07:12;49.57;;;18.03;;
37309;SDS011;23195;47.744;7.358;2024-01-16T00:09:41;48.83;;;18.07;;
37309;SDS011;23195;47.744;7.358;2024-01-16T00:12:24;49.40;;;18.73;;
37309;SDS011;23195;47.744;7.358;2024-01-16T00:15:03;47.70;;;19.70;;
37309;SDS011;23195;47.744;7.358;2024-01-16T00:17:33;50.20;;;18.70;;
37309;SDS011;23195;47.744;7.358;2024-01-16T00:20:11;47.00;;;17.83;;
37309;SDS011;23195;47.744;7.358;2024-01-16T00:23:01;51.10;;;19.23;;
37309;SDS011;23195;47.744;7.358;2024-01-16T00:25:39;50.47;;;18.57;;
37309;SDS011;23195;47.744;7.358;2024-01-16T00:28:15;47.53;;;17.87;;
37309;SDS011;23195;47.744;7.358;2024-01-16T00:30:51;52.77;;;18.93;;
37309;SDS011;23195;47.744;7.358;2024-01-16T00:33:21;59.80;;;20.87;;
37309;SDS011;23195;47.744;7.358;2024-01-16T00:35:57;53.93;;;19.30;;
37309;SDS011;23195;47.744;7.358;2024-01-16T00:38:26;57.93;;;19.97;;
37309;SDS011;23195;47.744;7.358;2024-01-16T00:40:51;49.40;;;18.77;;
37309;SDS011;23195;47.744;7.358;2024-01-16T00:43:23;52.03;;;19.93;;
37309;SDS011;23195;47.744;7.358;2024-01-16T00:46:02;57.03;;;20.43;;
37309;SDS011;23195;47.744;7.358;2024-01-16T00:48:48;48.60;;;19.20;;
37309;SDS011;23195;47.744;7.358;2024-01-16T00:51:16;56.37;;;21.10;;
37309;SDS011;23195;47.744;7.358;2024-01-16T00:54:01;58.63;;;21.23;;
37309;SDS011;23195;47.744;7.358;2024-01-16T00:56:27;53.23;;;19.43;;
37309;SDS011;23195;47.744;7.358;2024-01-16T00:59:11;55.40;;;20.30;;
37309;SDS011;23195;47.744;7.358;2024-01-16T01:01:54;55.93;;;20.33;;
37309;SDS011;23195;47.744;7.358;2024-01-16T01:04:38;56.10;;;21.00;;
37309;SDS011;23195;47.744;7.358;2024-01-16T01:07:14;52.37;;;20.33;;
37309;SDS011;23195;47.744;7.358;2024-01-16T01:09:55;52.33;;;19.57;;
37309;SDS011;23195;47.744;7.358;2024-01-16T01:12:30;54.73;;;20.63;;
37309;SDS011;23195;47.744;7.358;2024-01-16T01:15:20;53.70;;;20.37;;
37309;SDS011;23195;47.744;7.358;2024-01-16T01:18:03;59.97;;;21.13;;
37309;SDS011;23195;47.744;7.358;2024-01-16T01:20:48;55.63;;;21.20;;
37309;SDS011;23195;47.744;7.358;2024-01-16T01:23:24;55.47;;;21.50;;
37309;SDS011;23195;47.744;7.358;2024-01-16T01:25:57;55.30;;;20.47;;
37309;SDS011;23195;47.744;7.358;2024-01-16T01:28:33;59.70;;;21.77;;
37309;SDS011;23195;47.744;7.358;2024-01-16T01:31:18;56.20;;;20.87;;
37309;SDS011;23195;47.744;7.358;2024-01-16T01:33:46;55.37;;;20.00;;
37309;SDS011;23195;47.744;7.358;2024-01-16T01:36:30;60.80;;;19.90;;
37309;SDS011;23195;47.744;7.358;2024-01-16T01:38:56;59.90;;;20.73;;
37309;SDS011;23195;47.744;7.358;2024-01-16T01:41:39;59.60;;;20.13;;
37309;SDS011;23195;47.744;7.358;2024-01-16T01:44:17;57.40;;;20.03;;
37309;SDS011;23195;47.744;7.358;2024-01-16T01:46:55;63.63;;;21.70;;
37309;SDS011;23195;47.744;7.358;2024-01-16T01:49:41;57.80;;;19.80;;
37309;SDS011;23195;47.744;7.358;2024-01-16T01:52:18;54.17;;;20.47;;
37309;SDS011;23195;47.744;7.358;2024-01-16T01:54:56;61.07;;;20.07;;
37309;SDS011;23195;47.744;7.358;2024-01-16T01:57:31;55.93;;;20.50;;
37309;SDS011;23195;47.744;7.358;2024-01-16T02:00:13;53.07;;;19.07;;
37309;SDS011;23195;47.744;7.358;2024-01-16T02:02:43;58.67;;;20.03;;
37309;SDS011;23195;47.744;7.358;2024-01-16T02:05:21;55.40;;;19.30;;
37309;SDS011;23195;47.744;7.358;2024-01-16T02:07:47;50.10;;;19.13;;
37309;SDS011;23195;47.744;7.358;2024-01-16T02:10:32;58.47;;;21.33;;
37309;SDS011;23195;47.744;7.358;2024-01-16T02:13:01;55.90;;;20.03;;
37309;SDS011;23195;47.744;7.358;2024-01-16T02:15:29;55.17;;;20.57;;
37309;SDS011;23195;47.744;7.358;2024-01-16T02:18:43;55.90;;;19.67;;
37309;SDS011;23195;47.744;7.358;2024-01-16T02:21:09;58.10;;;20.43;;
37309;SDS011;23195;47.744;7.358;2024-01-16T02:23:48;55.87;;;20.47;;
37309;SDS011;23195;47.744;7.358;2024-01-16T02:26:27;58.30;;;19.73;;
37309;SDS011;23195;47.744;7.358;2024-01-16T02:29:05;51.43;;;19.80;;
37309;SDS011;23195;47.744;7.358;2024-01-16T02:31:43;54.80;;;19.67;;
37309;SDS011;23195;47.744;7.358;2024-01-16T02:34:17;53.27;;;18.57;;
37309;SDS011;23195;47.744;7.358;2024-01-16T02:36:43;50.17;;;19.37;;
37309;SDS011;23195;47.744;7.358;2024-01-16T02:39:20;59.70;;;22.50;;
37309;SDS011;23195;47.744;7.358;2024-01-16T02:41:51;57.90;;;22.13;;
37309;SDS011;23195;47.744;7.358;2024-01-16T02:44:19;56.93;;;19.87;;
37309;SDS011;23195;47.744;7.358;2024-01-16T02:46:47;53.20;;;20.17;;
37309;SDS011;23195;47.744;7.358;2024-01-16T02:49:29;59.70;;;21.10;;
37309;SDS011;23195;47.744;7.358;2024-01-16T02:51:57;59.17;;;21.00;;
37309;SDS011;23195;47.744;7.358;2024-01-16T02:54:49;86.73;;;37.17;;
37309;SDS011;23195;47.744;7.358;2024-01-16T02:57:30;57.63;;;21.20;;
37309;SDS011;23195;47.744;7.358;2024-01-16T03:00:06;65.53;;;26.50;;
37309;SDS011;23195;47.744;7.358;2024-01-16T03:02:58;63.37;;;23.23;;
37309;SDS011;23195;47.744;7.358;2024-01-16T03:05:51;57.67;;;19.13;;
37309;SDS011;23195;47.744;7.358;2024-01-16T03:08:27;58.13;;;22.40;;
37309;SDS011;23195;47.744;7.358;2024-01-16T03:10:56;52.17;;;18.67;;
37309;SDS011;23195;47.744;7.358;2024-01-16T03:13:32;71.50;;;29.87;;
37309;SDS011;23195;47.744;7.358;2024-01-16T03:16:10;59.40;;;20.60;;
37309;SDS011;23195;47.744;7.358;2024-01-16T03:18:44;59.97;;;21.80;;
37309;SDS011;23195;47.744;7.358;2024-01-16T03:21:23;55.90;;;19.93;;
37309;SDS011;23195;47.744;7.358;2024-01-16T03:23:51;53.50;;;18.50;;
37309;SDS011;23195;47.744;7.358;2024-01-16T03:26:36;47.13;;;18.23;;
37309;SDS011;23195;47.744;7.358;2024-01-16T03:29:15;52.20;;;18.37;;
37309;SDS011;23195;47.744;7.358;2024-01-16T03:31:54;54.47;;;18.77;;
37309;SDS011;23195;47.744;7.358;2024-01-16T03:34:32;50.67;;;17.83;;
37309;SDS011;23195;47.744;7.358;2024-01-16T03:37:08;63.27;;;25.63;;
37309;SDS011;23195;47.744;7.358;2024-01-16T03:39:43;63.27;;;19.30;;
37309;SDS011;23195;47.744;7.358;2024-01-16T03:42:24;77.83;;;33.57;;
37309;SDS011;23195;47.744;7.358;2024-01-16T03:45:03;55.70;;;21.50;;
37309;SDS011;23195;47.744;7.358;2024-01-16T03:47:46;57.00;;;20.07;;
37309;SDS011;23195;47.744;7.358;2024-01-16T03:50:25;56.90;;;19.00;;
37309;SDS011;23195;47.744;7.358;2024-01-16T03:53:01;52.80;;;18.10;;
37309;SDS011;23195;47.744;7.358;2024-01-16T03:55:40;56.80;;;19.03;;
37309;SDS011;23195;47.744;7.358;2024-01-16T03:58:16;52.47;;;20.67;;
37309;SDS011;23195;47.744;7.358;2024-01-16T04:00:50;55.50;;;21.70;;
37309;SDS011;23195;47.744;7.358;2024-01-16T04:03:28;55.30;;;20.30;;
37309;SDS011;23195;47.744;7.358;2024-01-16T04:06:13;57.80;;;20.93;;
37309;SDS011;23195;47.744;7.358;2024-01-16T04:08:52;53.03;;;21.50;;
37309;SDS011;23195;47.744;7.358;2024-01-16T04:14:26;50.20;;;18.27;;
37309;SDS011;23195;47.744;7.358;2024-01-16T04:17:01;53.20;;;18.80;;
37309;SDS011;23195;47.744;7.358;2024-01-16T04:19:27;53.17;;;19.57;;
37309;SDS011;23195;47.744;7.358;2024-01-16T04:22:01;48.53;;;18.43;;
37309;SDS011;23195;47.744;7.358;2024-01-16T04:24:36;48.37;;;18.83;;
37309;SDS011;23195;47.744;7.358;2024-01-16T04:27:12;49.30;;;18.03;;
37309;SDS011;23195;47.744;7.358;2024-01-16T04:29:48;49.67;;;17.50;;
37309;SDS011;23195;47.744;7.358;2024-01-16T04:32:17;53.67;;;18.50;;
37309;SDS011;23195;47.744;7.358;2024-01-16T04:34:45;60.17;;;25.40;;
37309;SDS011;23195;47.744;7.358;2024-01-16T04:37:22;46.27;;;18.00;;
37309;SDS011;23195;47.744;7.358;2024-01-16T04:39:58;46.20;;;17.67;;
37309;SDS011;23195;47.744;7.358;2024-01-16T04:42:34;46.87;;;16.73;;
37309;SDS011;23195;47.744;7.358;2024-01-16T04:45:10;47.20;;;17.23;;
37309;SDS011;23195;47.744;7.358;2024-01-16T04:47:51;48.83;;;17.07;;
37309;SDS011;23195;47.744;7.358;2024-01-16T04:50:22;51.37;;;17.70;;
37309;SDS011;23195;47.744;7.358;2024-01-16T04:52:59;49.07;;;18.13;;
37309;SDS011;23195;47.744;7.358;2024-01-16T04:55:36;48.33;;;16.57;;
37309;SDS011;23195;47.744;7.358;2024-01-16T04:58:14;52.27;;;17.97;;
37309;SDS011;23195;47.744;7.358;2024-01-16T05:00:44;50.90;;;19.73;;
37309;SDS011;23195;47.744;7.358;2024-01-16T05:03:22;52.10;;;19.93;;
37309;SDS011;23195;47.744;7.358;2024-01-16T05:05:51;45.83;;;17.30;;
37309;SDS011;23195;47.744;7.358;2024-01-16T05:08:21;55.13;;;17.73;;
37309;SDS011;23195;47.744;7.358;2024-01-16T05:10:57;48.23;;;18.37;;
37309;SDS011;23195;47.744;7.358;2024-01-16T05:13:31;51.20;;;16.43;;
37309;SDS011;23195;47.744;7.358;2024-01-16T05:16:06;46.57;;;16.27;;
37309;SDS011;23195;47.744;7.358;2024-01-16T05:18:49;51.27;;;16.20;;
37309;SDS011;23195;47.744;7.358;2024-01-16T05:21:25;45.20;;;16.47;;
37309;SDS011;23195;47.744;7.358;2024-01-16T05:23:50;46.10;;;16.13;;
37309;SDS011;23195;47.744;7.358;2024-01-16T05:26:29;46.50;;;15.73;;
37309;SDS011;23195;47.744;7.358;2024-01-16T05:28:58;41.73;;;15.17;;
37309;SDS011;23195;47.744;7.358;2024-01-16T05:31:39;42.33;;;16.27;;
37309;SDS011;23195;47.744;7.358;2024-01-16T05:34:16;45.77;;;17.03;;
37309;SDS011;23195;47.744;7.358;2024-01-16T05:36:52;48.60;;;17.23;;
37309;SDS011;23195;47.744;7.358;2024-01-16T05:39:24;47.33;;;16.20;;
37309;SDS011;23195;47.744;7.358;2024-01-16T05:42:07;69.87;;;22.23;;
37309;SDS011;23195;47.744;7.358;2024-01-16T05:44:43;51.57;;;20.17;;
37309;SDS011;23195;47.744;7.358;2024-01-16T05:47:19;63.17;;;21.87;;
37309;SDS011;23195;47.744;7.358;2024-01-16T05:49:56;53.73;;;19.93;;
37309;SDS011;23195;47.744;7.358;2024-01-16T05:52:22;55.03;;;20.20;;
37309;SDS011;23195;47.744;7.358;2024-01-16T05:54:51;53.33;;;20.50;;
37309;SDS011;23195;47.744;7.358;2024-01-16T05:57:27;54.60;;;20.93;;
37309;SDS011;23195;47.744;7.358;2024-01-16T05:59:56;58.97;;;21.17;;
37309;SDS011;23195;47.744;7.358;2024-01-16T06:02:32;50.10;;;18.73;;
37309;SDS011;23195;47.744;7.358;2024-01-16T06:05:03;49.07;;;18.83;;
37309;SDS011;23195;47.744;7.358;2024-01-16T06:07:39;49.77;;;18.13;;
37309;SDS011;23195;47.744;7.358;2024-01-16T06:10:16;49.87;;;19.13;;
37309;SDS011;23195;47.744;7.358;2024-01-16T06:12:42;52.60;;;19.03;;
37309;SDS011;23195;47.744;7.358;2024-01-16T06:15:13;50.83;;;20.20;;
37309;SDS011;23195;47.744;7.358;2024-01-16T06:17:52;52.70;;;19.43;;
37309;SDS011;23195;47.744;7.358;2024-01-16T06:20:18;57.57;;;20.70;;
37309;SDS011;23195;47.744;7.358;2024-01-16T06:22:51;54.80;;;21.00;;
37309;SDS011;23195;47.744;7.358;2024-01-16T06:25:20;53.00;;;20.47;;
37309;SDS011;23195;47.744;7.358;2024-01-16T06:27:48;56.50;;;21.47;;
37309;SDS011;23195;47.744;7.358;2024-01-16T06:30:29;61.93;;;22.33;;
37309;SDS011;23195;47.744;7.358;2024-01-16T06:32:58;53.77;;;21.07;;
37309;SDS011;23195;47.744;7.358;2024-01-16T06:35:34;62.40;;;21.07;;
37309;SDS011;23195;47.744;7.358;2024-01-16T06:37:59;55.93;;;21.17;;
37309;SDS011;23195;47.744;7.358;2024-01-16T06:40:26;61.50;;;22.83;;
37309;SDS011;23195;47.744;7.358;2024-01-16T06:42:55;58.80;;;22.30;;
37309;SDS011;23195;47.744;7.358;2024-01-16T06:45:21;53.40;;;20.93;;
37309;SDS011;23195;47.744;7.358;2024-01-16T06:47:47;59.83;;;21.33;;
37309;SDS011;23195;47.744;7.358;2024-01-16T06:50:12;59.23;;;21.30;;
37309;SDS011;23195;47.744;7.358;2024-01-16T06:52:38;54.13;;;21.43;;
37309;SDS011;23195;47.744;7.358;2024-01-16T06:55:04;64.73;;;23.87;;
37309;SDS011;23195;47.744;7.358;2024-01-16T06:57:33;68.70;;;24.13;;
37309;SDS011;23195;47.744;7.358;2024-01-16T06:59:59;81.97;;;27.70;;
37309;SDS011;23195;47.744;7.358;2024-01-16T07:02:51;63.77;;;23.43;;
37309;SDS011;23195;47.744;7.358;2024-01-16T07:05:28;64.13;;;24.83;;
37309;SDS011;23195;47.744;7.358;2024-01-16T07:08:16;69.97;;;24.13;;
37309;SDS011;23195;47.744;7.358;2024-01-16T07:10:52;81.00;;;31.13;;
37309;SDS011;23195;47.744;7.358;2024-01-16T07:13:30;90.70;;;39.53;;
37309;SDS011;23195;47.744;7.358;2024-01-16T07:16:01;78.17;;;32.63;;
37309;SDS011;23195;47.744;7.358;2024-01-16T07:18:29;71.17;;;24.73;;
37309;SDS011;23195;47.744;7.358;2024-01-16T07:21:18;64.73;;;24.10;;
37309;SDS011;23195;47.744;7.358;2024-01-16T07:23:47;60.57;;;23.90;;
37309;SDS011;23195;47.744;7.358;2024-01-16T07:26:41;68.37;;;24.37;;
37309;SDS011;23195;47.744;7.358;2024-01-16T07:29:27;64.27;;;24.37;;
37309;SDS011;23195;47.744;7.358;2024-01-16T07:31:52;65.03;;;24.43;;
37309;SDS011;23195;47.744;7.358;2024-01-16T07:34:38;60.53;;;24.33;;
37309;SDS011;23195;47.744;7.358;2024-01-16T07:37:09;63.20;;;23.70;;
37309;SDS011;23195;47.744;7.358;2024-01-16T07:42:56;59.90;;;23.70;;
37309;SDS011;23195;47.744;7.358;2024-01-16T07:45:37;55.83;;;23.10;;
37309;SDS011;23195;47.744;7.358;2024-01-16T07:48:03;62.63;;;24.70;;
37309;SDS011;23195;47.744;7.358;2024-01-16T07:50:34;63.90;;;24.53;;
37309;SDS011;23195;47.744;7.358;2024-01-16T07:53:17;67.43;;;27.03;;
37309;SDS011;23195;47.744;7.358;2024-01-16T07:55:43;65.17;;;25.10;;
37309;SDS011;23195;47.744;7.358;2024-01-16T07:58:28;64.73;;;25.97;;
37309;SDS011;23195;47.744;7.358;2024-01-16T08:01:04;62.03;;;24.43;;
37309;SDS011;23195;47.744;7.358;2024-01-16T08:03:43;67.30;;;26.10;;
37309;SDS011;23195;47.744;7.358;2024-01-16T08:06:09;64.07;;;24.63;;
37309;SDS011;23195;47.744;7.358;2024-01-16T08:08:38;63.60;;;24.10;;
37309;SDS011;23195;47.744;7.358;2024-01-16T08:11:25;56.17;;;22.90;;
37309;SDS011;23195;47.744;7.358;2024-01-16T08:14:01;62.63;;;23.57;;
37309;SDS011;23195;47.744;7.358;2024-01-16T08:16:42;58.83;;;23.67;;
37309;SDS011;23195;47.744;7.358;2024-01-16T08:19:16;59.60;;;23.40;;
37309;SDS011;23195;47.744;7.358;2024-01-16T08:21:44;60.07;;;23.00;;
37309;SDS011;23195;47.744;7.358;2024-01-16T08:24:15;62.40;;;23.57;;
37309;SDS011;23195;47.744;7.358;2024-01-16T08:26:46;65.50;;;25.13;;
37309;SDS011;23195;47.744;7.358;2024-01-16T08:29:37;70.10;;;26.27;;
37309;SDS011;23195;47.744;7.358;2024-01-16T08:32:14;67.40;;;27.90;;
37309;SDS011;23195;47.744;7.358;2024-01-16T08:34:45;62.27;;;25.90;;
37309;SDS011;23195;47.744;7.358;2024-01-16T08:37:34;66.53;;;24.87;;
37309;SDS011;23195;47.744;7.358;2024-01-16T08:40:12;62.60;;;25.37;;
37309;SDS011;23195;47.744;7.358;2024-01-16T08:42:41;65.90;;;26.43;;
37309;SDS011;23195;47.744;7.358;2024-01-16T08:45:22;65.77;;;26.90;;
37309;SDS011;23195;47.744;7.358;2024-01-16T08:48:10;59.17;;;24.93;;
37309;SDS011;23195;47.744;7.358;2024-01-16T08:50:46;61.00;;;25.23;;
37309;SDS011;23195;47.744;7.358;2024-01-16T08:53:15;62.90;;;26.03;;
37309;SDS011;23195;47.744;7.358;2024-01-16T08:55:53;66.07;;;25.57;;
37309;SDS011;23195;47.744;7.358;2024-01-16T08:58:25;58.70;;;25.43;;
37309;SDS011;23195;47.744;7.358;2024-01-16T09:01:04;57.47;;;25.30;;
37309;SDS011;23195;47.744;7.358;2024-01-16T09:03:31;63.30;;;25.23;;
37309;SDS011;23195;47.744;7.358;2024-01-16T09:05:58;56.53;;;25.03;;
37309;SDS011;23195;47.744;7.358;2024-01-16T09:08:25;63.23;;;26.43;;
37309;SDS011;23195;47.744;7.358;2024-01-16T09:10:57;61.17;;;26.90;;
37309;SDS011;23195;47.744;7.358;2024-01-16T09:13:25;57.80;;;25.43;;
37309;SDS011;23195;47.744;7.358;2024-01-16T09:15:54;62.43;;;26.60;;
37309;SDS011;23195;47.744;7.358;2024-01-16T09:18:38;60.73;;;26.83;;
37309;SDS011;23195;47.744;7.358;2024-01-16T09:21:14;65.30;;;28.83;;
37309;SDS011;23195;47.744;7.358;2024-01-16T09:23:41;57.83;;;25.60;;
37309;SDS011;23195;47.744;7.358;2024-01-16T09:26:07;59.40;;;26.30;;
37309;SDS011;23195;47.744;7.358;2024-01-16T09:28:46;59.57;;;26.77;;
37309;SDS011;23195;47.744;7.358;2024-01-16T09:31:16;55.50;;;25.50;;
37309;SDS011;23195;47.744;7.358;2024-01-16T09:33:45;55.33;;;25.70;;
37309;SDS011;23195;47.744;7.358;2024-01-16T09:36:14;58.87;;;26.17;;
37309;SDS011;23195;47.744;7.358;2024-01-16T09:38:43;66.33;;;28.07;;
37309;SDS011;23195;47.744;7.358;2024-01-16T09:41:15;61.73;;;27.97;;
37309;SDS011;23195;47.744;7.358;2024-01-16T09:43:54;64.20;;;28.17;;
37309;SDS011;23195;47.744;7.358;2024-01-16T09:46:22;64.20;;;28.83;;
37309;SDS011;23195;47.744;7.358;2024-01-16T09:48:50;57.73;;;26.57;;
37309;SDS011;23195;47.744;7.358;2024-01-16T09:51:22;66.80;;;26.97;;
37309;SDS011;23195;47.744;7.358;2024-01-16T09:53:51;56.80;;;26.13;;
37309;SDS011;23195;47.744;7.358;2024-01-16T09:56:27;59.13;;;27.67;;
37309;SDS011;23195;47.744;7.358;2024-01-16T09:59:15;58.97;;;26.40;;
37309;SDS011;23195;47.744;7.358;2024-01-16T10:01:59;59.77;;;26.90;;
37309;SDS011;23195;47.744;7.358;2024-01-16T10:04:37;57.70;;;27.03;;
37309;SDS011;23195;47.744;7.358;2024-01-16T10:07:03;58.43;;;26.93;;
37309;SDS011;23195;47.744;7.358;2024-01-16T10:09:35;53.87;;;26.30;;
37309;SDS011;23195;47.744;7.358;2024-01-16T10:12:05;52.73;;;23.90;;
37309;SDS011;23195;47.744;7.358;2024-01-16T10:14:42;55.40;;;24.23;;
37309;SDS011;23195;47.744;7.358;2024-01-16T10:17:19;50.53;;;23.37;;
37309;SDS011;23195;47.744;7.358;2024-01-16T10:19:49;52.43;;;25.50;;
37309;SDS011;23195;47.744;7.358;2024-01-16T10:22:24;49.17;;;24.80;;
37309;SDS011;23195;47.744;7.358;2024-01-16T10:25:05;48.13;;;25.27;;
37309;SDS011;23195;47.744;7.358;2024-01-16T10:27:43;52.23;;;25.03;;
37309;SDS011;23195;47.744;7.358;2024-01-16T10:30:23;52.83;;;24.77;;
37309;SDS011;23195;47.744;7.358;2024-01-16T10:32:49;55.63;;;27.70;;
37309;SDS011;23195;47.744;7.358;2024-01-16T10:35:26;55.27;;;27.97;;
37309;SDS011;23195;47.744;7.358;2024-01-16T10:37:56;50.90;;;27.03;;
37309;SDS011;23195;47.744;7.358;2024-01-16T10:40:32;53.27;;;27.17;;
37309;SDS011;23195;47.744;7.358;2024-01-16T10:43:11;48.63;;;24.93;;
37309;SDS011;23195;47.744;7.358;2024-01-16T10:45:45;52.33;;;26.97;;
37309;SDS011;23195;47.744;7.358;2024-01-16T10:48:18;53.93;;;26.17;;
37309;SDS011;23195;47.744;7.358;2024-01-16T10:53:49;47.00;;;23.40;;
37309;SDS011;23195;47.744;7.358;2024-01-16T10:56:42;48.03;;;23.53;;
37309;SDS011;23195;47.744;7.358;2024-01-16T10:59:34;54.63;;;25.57;;
37309;SDS011;23195;47.744;7.358;2024-01-16T11:02:21;42.67;;;22.60;;
37309;SDS011;23195;47.744;7.358;2024-01-16T11:05:07;42.37;;;22.07;;
37309;SDS011;23195;47.744;7.358;2024-01-16T11:07:36;45.43;;;23.97;;
37309;SDS011;23195;47.744;7.358;2024-01-16T11:10:18;47.70;;;23.83;;
37309;SDS011;23195;47.744;7.358;2024-01-16T11:12:47;46.70;;;24.23;;
37309;SDS011;23195;47.744;7.358;2024-01-16T11:15:25;40.37;;;21.23;;
37309;SDS011;23195;47.744;7.358;2024-01-16T11:17:53;39.77;;;21.03;;
37309;SDS011;23195;47.744;7.358;2024-01-16T11:20:42;37.90;;;18.90;;
37309;SDS011;23195;47.744;7.358;2024-01-16T11:23:13;34.53;;;17.83;;
37309;SDS011;23195;47.744;7.358;2024-01-16T11:25:39;38.20;;;18.57;;
37309;SDS011;23195;47.744;7.358;2024-01-16T11:28:18;38.10;;;19.60;;
37309;SDS011;23195;47.744;7.358;2024-01-16T11:30:53;31.60;;;17.83;;
37309;SDS011;23195;47.744;7.358;2024-01-16T11:33:44;28.90;;;14.77;;
37309;SDS011;23195;47.744;7.358;2024-01-16T11:39:09;17.10;;;8.90;;
37309;SDS011;23195;47.744;7.358;2024-01-16T11:42:01;14.40;;;8.57;;
37309;SDS011;23195;47.744;7.358;2024-01-16T11:44:55;16.00;;;8.40;;
37309;SDS011;23195;47.744;7.358;2024-01-16T11:47:37;17.50;;;8.67;;
37309;SDS011;23195;47.744;7.358;2024-01-16T11:50:12;15.20;;;8.40;;
37309;SDS011;23195;47.744;7.358;2024-01-16T11:52:53;17.87;;;8.80;;
37309;SDS011;23195;47.744;7.358;2024-01-16T12:01:33;17.23;;;9.20;;
37309;SDS011;23195;47.744;7.358;2024-01-16T12:04:13;17.93;;;9.30;;
37309;SDS011;23195;47.744;7.358;2024-01-16T12:06:59;17.57;;;9.20;;
37309;SDS011;23195;47.744;7.358;2024-01-16T12:09:44;19.87;;;10.13;;
37309;SDS011;23195;47.744;7.358;2024-01-16T12:12:16;16.37;;;9.73;;
37309;SDS011;23195;47.744;7.358;2024-01-16T12:14:54;21.83;;;10.03;;
37309;SDS011;23195;47.744;7.358;2024-01-16T12:17:45;19.93;;;10.57;;
37309;SDS011;23195;47.744;7.358;2024-01-16T12:20:37;20.00;;;10.17;;
37309;SDS011;23195;47.744;7.358;2024-01-16T12:23:13;22.23;;;10.93;;
37309;SDS011;23195;47.744;7.358;2024-01-16T12:25:51;17.23;;;10.03;;
37309;SDS011;23195;47.744;7.358;2024-01-16T12:28:28;19.47;;;10.27;;
37309;SDS011;23195;47.744;7.358;2024-01-16T12:30:56;18.47;;;10.03;;
37309;SDS011;23195;47.744;7.358;2024-01-16T12:33:32;20.70;;;9.67;;
37309;SDS011;23195;47.744;7.358;2024-01-16T12:36:03;20.03;;;10.20;;
37309;SDS011;23195;47.744;7.358;2024-01-16T12:39:07;18.20;;;10.10;;
37309;SDS011;23195;47.744;7.358;2024-01-16T12:41:56;19.60;;;9.93;;
37309;SDS011;23195;47.744;7.358;2024-01-16T12:44:38;18.70;;;10.07;;
37309;SDS011;23195;47.744;7.358;2024-01-16T12:47:15;17.70;;;9.30;;
37309;SDS011;23195;47.744;7.358;2024-01-16T12:49:53;20.57;;;9.50;;
37309;SDS011;23195;47.744;7.358;2024-01-16T12:59:34;18.03;;;8.67;;
37309;SDS011;23195;47.744;7.358;2024-01-16T13:02:05;20.87;;;9.67;;
37309;SDS011;23195;47.744;7.358;2024-01-16T13:05:00;20.13;;;9.73;;
37309;SDS011;23195;47.744;7.358;2024-01-16T13:07:32;21.17;;;10.73;;
37309;SDS011;23195;47.744;7.358;2024-01-16T13:10:19;20.87;;;10.27;;
37309;SDS011;23195;47.744;7.358;2024-01-16T13:13:11;26.50;;;11.33;;
37309;SDS011;23195;47.744;7.358;2024-01-16T13:15:46;20.33;;;10.37;;
37309;SDS011;23195;47.744;7.358;2024-01-16T13:21:26;20.73;;;10.70;;
37309;SDS011;23195;47.744;7.358;2024-01-16T13:23:54;22.90;;;10.60;;
37309;SDS011;23195;47.744;7.358;2024-01-16T13:26:20;20.77;;;10.47;;
37309;SDS011;23195;47.744;7.358;2024-01-16T13:29:05;27.33;;;11.53;;
37309;SDS011;23195;47.744;7.358;2024-01-16T13:31:44;19.70;;;10.37;;
37309;SDS011;23195;47.744;7.358;2024-01-16T13:34:20;20.50;;;10.43;;
37309;SDS011;23195;47.744;7.358;2024-01-16T13:37:09;19.53;;;10.13;;
37309;SDS011;23195;47.744;7.358;2024-01-16T13:39:38;19.27;;;10.13;;
37309;SDS011;23195;47.744;7.358;2024-01-16T13:42:07;18.03;;;10.10;;
37309;SDS011;23195;47.744;7.358;2024-01-16T13:44:46;19.50;;;10.83;;
37309;SDS011;23195;47.744;7.358;2024-01-16T13:47:12;22.37;;;11.47;;
37309;SDS011;23195;47.744;7.358;2024-01-16T13:50:12;18.73;;;10.77;;
37309;SDS011;23195;47.744;7.358;2024-01-16T13:52:48;19.70;;;11.07;;
37309;SDS011;23195;47.744;7.358;2024-01-16T13:55:21;21.70;;;10.37;;
37309;SDS011;23195;47.744;7.358;2024-01-16T13:57:55;19.47;;;10.70;;
37309;SDS011;23195;47.744;7.358;2024-01-16T14:00:33;19.73;;;10.60;;
37309;SDS011;23195;47.744;7.358;2024-01-16T14:03:00;20.33;;;12.30;;
37309;SDS011;23195;47.744;7.358;2024-01-16T14:05:36;20.30;;;11.17;;
37309;SDS011;23195;47.744;7.358;2024-01-16T14:08:04;21.00;;;11.50;;
37309;SDS011;23195;47.744;7.358;2024-01-16T14:10:40;21.20;;;11.90;;
37309;SDS011;23195;47.744;7.358;2024-01-16T14:13:09;21.93;;;11.20;;
37309;SDS011;23195;47.744;7.358;2024-01-16T14:15:44;22.10;;;11.97;;
37309;SDS011;23195;47.744;7.358;2024-01-16T14:18:10;21.70;;;12.30;;
37309;SDS011;23195;47.744;7.358;2024-01-16T14:20:41;25.47;;;13.17;;
37309;SDS011;23195;47.744;7.358;2024-01-16T14:23:12;26.60;;;12.77;;
37309;SDS011;23195;47.744;7.358;2024-01-16T14:25:44;19.93;;;11.63;;
37309;SDS011;23195;47.744;7.358;2024-01-16T14:28:10;24.57;;;12.30;;
37309;SDS011;23195;47.744;7.358;2024-01-16T14:30:39;20.73;;;12.10;;
37309;SDS011;23195;47.744;7.358;2024-01-16T14:33:16;18.80;;;11.43;;
37309;SDS011;23195;47.744;7.358;2024-01-16T14:35:51;21.60;;;11.87;;
37309;SDS011;23195;47.744;7.358;2024-01-16T14:38:32;21.43;;;11.83;;
37309;SDS011;23195;47.744;7.358;2024-01-16T14:41:16;20.60;;;11.53;;
37309;SDS011;23195;47.744;7.358;2024-01-16T14:43:55;31.73;;;11.93;;
37309;SDS011;23195;47.744;7.358;2024-01-16T14:46:30;21.33;;;11.13;;
37309;SDS011;23195;47.744;7.358;2024-01-16T14:49:11;17.07;;;10.03;;
37309;SDS011;23195;47.744;7.358;2024-01-16T14:51:39;22.23;;;11.17;;
37309;SDS011;23195;47.744;7.358;2024-01-16T14:54:16;19.73;;;11.40;;
37309;SDS011;23195;47.744;7.358;2024-01-16T14:56:59;22.17;;;11.50;;
37309;SDS011;23195;47.744;7.358;2024-01-16T14:59:39;21.40;;;11.33;;
37309;SDS011;23195;47.744;7.358;2024-01-16T15:02:20;19.23;;;10.97;;
37309;SDS011;23195;47.744;7.358;2024-01-16T15:05:05;21.80;;;11.83;;
37309;SDS011;23195;47.744;7.358;2024-01-16T15:07:39;23.07;;;11.73;;
37309;SDS011;23195;47.744;7.358;2024-01-16T15:10:20;22.20;;;11.30;;
37309;SDS011;23195;47.744;7.358;2024-01-16T15:12:51;24.63;;;12.13;;
37309;SDS011;23195;47.744;7.358;2024-01-16T15:15:25;22.23;;;12.33;;
37309;SDS011;23195;47.744;7.358;2024-01-16T15:18:01;22.83;;;12.17;;
37309;SDS011;23195;47.744;7.358;2024-01-16T15:20:37;21.93;;;11.97;;
37309;SDS011;23195;47.744;7.358;2024-01-16T15:23:18;28.20;;;14.57;;
37309;SDS011;23195;47.744;7.358;2024-01-16T15:25:52;27.10;;;13.67;;
37309;SDS011;23195;47.744;7.358;2024-01-16T15:28:33;25.80;;;12.83;;
37309;SDS011;23195;47.744;7.358;2024-01-16T15:31:12;24.47;;;13.23;;
37309;SDS011;23195;47.744;7.358;2024-01-16T15:33:51;26.77;;;12.30;;
37309;SDS011;23195;47.744;7.358;2024-01-16T15:36:40;24.67;;;12.07;;
37309;SDS011;23195;47.744;7.358;2024-01-16T15:39:36;32.60;;;16.10;;
37309;SDS011;23195;47.744;7.358;2024-01-16T15:42:16;28.27;;;14.60;;